Time;durP1;ratioP1;P1;durP2;ratioP2;P2;SDS_P1;SDS_P2;PMS_P1;PMS_P2;Temp;Humidity;BMP_temperature;BMP_pressure;BME280_temperature;BME280_humidity;BME280_pressure;Samples;Min_cycle;Max_cycle;Signal;HPM_P1;HPM_P2
2022/08/01 00:00:30;;;;;;;14.50;6.07;;;;;;;18.10;100.00;101830.63;7376334;19;20021;-79
2022/08/01 00:03:01;;;;;;;14.30;6.78;;;;;;;18.09;100.00;101831.53;7374804;19;20010;-79
2022/08/01 00:05:34;;;;;;;14.32;6.28;;;;;;;18.08;100.00;101827.97;7374449;19;20516;-78
2022/08/01 00:08:04;;;;;;;15.65;6.07;;;;;;;18.12;100.00;101827.09;7372456;19;20418;-79
2022/08/01 00:10:35;;;;;;;13.55;6.43;;;;;;;18.11;100.00;101835.94;7371496;19;20018;-79
2022/08/01 00:13:06;;;;;;;16.02;6.30;;;;;;;18.12;100.00;101834.16;7373144;19;20015;-79
2022/08/01 00:15:39;;;;;;;11.88;5.55;;;;;;;18.09;100.00;101828.88;7372792;19;20129;-78
2022/08/01 00:18:20;;;;;;;14.65;5.85;;;;;;;18.10;100.00;101835.94;7369755;19;20010;-78
2022/08/01 00:20:56;;;;;;;14.73;6.80;;;;;;;18.10;100.00;101835.94;7371179;19;20006;-81
2022/08/01 00:23:29;;;;;;;11.68;5.35;;;;;;;18.09;100.00;101835.06;7374346;19;20006;-78
2022/08/01 00:26:00;;;;;;;13.50;5.78;;;;;;;18.11;100.00;101832.41;7375470;19;20003;-79
2022/08/01 00:28:33;;;;;;;12.50;5.10;;;;;;;18.07;100.00;101838.59;7371292;19;20021;-79
2022/08/01 00:31:03;;;;;;;11.02;5.53;;;;;;;18.07;100.00;101839.50;7375808;19;20010;-79
2022/08/01 00:33:33;;;;;;;13.38;5.30;;;;;;;18.05;100.00;101837.72;7375369;19;20050;-79
2022/08/01 00:36:06;;;;;;;13.55;5.57;;;;;;;18.06;100.00;101840.38;7369640;19;20381;-79
2022/08/01 00:38:37;;;;;;;12.07;5.28;;;;;;;18.05;100.00;101835.06;7373312;19;20010;-79
2022/08/01 00:41:07;;;;;;;13.13;4.97;;;;;;;18.07;100.00;101835.94;7371645;19;20562;-81
2022/08/01 00:43:37;;;;;;;16.65;6.68;;;;;;;18.10;100.00;101843.91;7371914;19;21345;-79
2022/08/01 00:46:07;;;;;;;14.57;5.57;;;;;;;18.10;100.00;101836.84;7372846;19;20033;-79
2022/08/01 00:48:37;;;;;;;12.20;5.50;;;;;;;18.08;100.00;101838.59;7373218;19;20010;-79
2022/08/01 00:51:13;;;;;;;14.10;5.93;;;;;;;18.08;100.00;101833.28;7372695;19;20508;-77
2022/08/01 00:53:45;;;;;;;15.05;6.03;;;;;;;18.04;100.00;101830.66;7368408;19;20043;-78
2022/08/01 00:56:23;;;;;;;14.63;6.95;;;;;;;18.04;100.00;101828.00;7371502;19;20439;-78
2022/08/01 00:58:56;;;;;;;14.43;6.55;;;;;;;17.98;100.00;101835.06;7375655;19;20014;-79
2022/08/01 01:01:29;;;;;;;14.20;5.53;;;;;;;17.97;100.00;101835.09;7376992;19;20015;-79
2022/08/01 01:04:09;;;;;;;13.13;4.82;;;;;;;17.97;100.00;101829.78;7373440;19;20089;-78
2022/08/01 01:07:00;;;;;;;9.00;3.75;;;;;;;17.91;100.00;101830.66;7375143;19;20443;-78
2022/08/01 01:09:41;;;;;;;7.28;3.83;;;;;;;17.85;100.00;101829.78;7377084;19;20011;-78
2022/08/01 01:12:24;;;;;;;6.80;3.42;;;;;;;17.81;100.00;101822.72;7374805;19;20006;-78
2022/08/01 01:15:04;;;;;;;10.82;3.40;;;;;;;17.79;100.00;101829.78;7377977;19;20450;-79
2022/08/01 01:17:39;;;;;;;7.32;3.08;;;;;;;17.75;100.00;101826.25;7376232;19;20007;-81
2022/08/01 01:20:20;;;;;;;9.50;3.47;;;;;;;17.76;100.00;101828.03;7376780;19;20332;-79
2022/08/01 01:23:08;;;;;;;7.70;3.03;;;;;;;17.77;100.00;101831.56;7377192;19;20006;-78
2022/08/01 01:26:12;;;;;;;8.25;3.00;;;;;;;17.72;100.00;101828.91;7378491;19;20014;-79
2022/08/01 01:29:00;;;;;;;5.85;2.33;;;;;;;17.71;100.00;101827.13;7373001;19;20016;-80
2022/08/01 01:31:33;;;;;;;7.43;2.67;;;;;;;17.66;100.00;101828.94;7376926;19;20020;-78
2022/08/01 01:34:05;;;;;;;6.72;3.10;;;;;;;17.69;100.00;101828.03;7378491;19;20357;-79
2022/08/01 01:36:38;;;;;;;9.63;3.20;;;;;;;17.68;100.00;101834.25;7368675;19;20091;-80
2022/08/01 01:39:09;;;;;;;8.07;3.47;;;;;;;17.64;100.00;101838.63;7381830;19;20022;-79
2022/08/01 01:41:42;;;;;;;7.60;3.20;;;;;;;17.62;100.00;101835.09;7375806;19;20006;-78
2022/08/01 01:44:17;;;;;;;7.18;2.90;;;;;;;17.62;100.00;101835.97;7373092;19;20026;-79
2022/08/01 01:46:48;;;;;;;11.10;3.95;;;;;;;17.59;100.00;101837.75;7374404;19;20051;-79
2022/08/01 01:49:24;;;;;;;8.65;3.22;;;;;;;17.56;100.00;101835.09;7370064;19;20010;-76
2022/08/01 01:51:59;;;;;;;7.03;3.88;;;;;;;17.55;100.00;101835.97;7372819;19;20070;-78
2022/08/01 01:54:35;;;;;;;7.90;3.53;;;;;;;17.52;100.00;101842.16;7364906;19;20243;-78
2022/08/01 01:57:07;;;;;;;6.82;3.35;;;;;;;17.49;100.00;101833.31;7370070;19;20015;-79
2022/08/01 01:59:42;;;;;;;7.20;3.50;;;;;;;17.49;100.00;101841.28;7368984;19;20269;-78
2022/08/01 02:02:16;;;;;;;8.43;3.58;;;;;;;17.49;100.00;101831.56;7372693;19;20669;-76
2022/08/01 02:04:51;;;;;;;8.85;3.97;;;;;;;17.45;100.00;101834.22;7384989;19;20499;-77
2022/08/01 02:07:27;;;;;;;7.80;3.78;;;;;;;17.42;100.00;101839.50;7380816;19;20011;-76
2022/08/01 02:09:59;;;;;;;7.43;3.75;;;;;;;17.40;100.00;101842.16;7378600;19;20015;-77
2022/08/01 02:12:32;;;;;;;8.95;3.80;;;;;;;17.39;100.00;101836.84;7377161;19;20017;-78
2022/08/01 02:15:09;;;;;;;9.32;4.18;;;;;;;17.40;100.00;101843.91;7376673;19;20014;-78
2022/08/01 02:17:44;;;;;;;10.52;4.20;;;;;;;17.39;100.00;101839.50;7373240;19;20010;-78
2022/08/01 02:20:16;;;;;;;9.55;4.68;;;;;;;17.37;100.00;101842.16;7377737;19;20010;-78
2022/08/01 02:22:51;;;;;;;8.98;4.22;;;;;;;17.38;100.00;101846.56;7376657;19;20043;-79
2022/08/01 02:25:26;;;;;;;10.75;4.80;;;;;;;17.37;100.00;101843.91;7378029;19;20074;-79
2022/08/01 02:28:03;;;;;;;9.25;4.68;;;;;;;17.39;100.00;101844.81;7379213;19;20010;-79
2022/08/01 02:30:38;;;;;;;11.27;4.47;;;;;;;17.39;100.00;101848.34;7378139;19;20457;-78
2022/08/01 02:33:14;;;;;;;9.68;4.68;;;;;;;17.38;100.00;101843.03;7378843;19;20017;-78
2022/08/01 02:35:50;;;;;;;9.05;4.47;;;;;;;17.40;100.00;101846.56;7377227;19;20027;-78
2022/08/01 02:38:46;;;;;;;9.35;4.32;;;;;;;17.40;100.00;101850.09;7374176;19;20010;-79
2022/08/01 02:41:22;;;;;;;9.43;4.63;;;;;;;17.41;100.00;101848.34;7379325;19;20014;-79
2022/08/01 02:43:59;;;;;;;11.82;5.20;;;;;;;17.40;100.00;101854.53;7378506;19;20334;-80
2022/08/01 02:46:38;;;;;;;11.52;5.13;;;;;;;17.39;100.00;101845.69;7376692;19;20022;-79
2022/08/01 02:49:12;;;;;;;10.30;4.72;;;;;;;17.38;100.00;101841.28;7377817;19;20014;-79
2022/08/01 02:51:44;;;;;;;8.63;4.60;;;;;;;17.40;100.00;101847.47;7376432;19;20047;-79
2022/08/01 02:54:14;;;;;;;9.90;4.88;;;;;;;17.38;100.00;101843.91;7371767;19;20498;-79
2022/08/01 02:56:46;;;;;;;10.30;4.55;;;;;;;17.37;100.00;101849.22;7373247;19;20018;-80
2022/08/01 02:59:20;;;;;;;11.07;5.18;;;;;;;17.36;100.00;101847.44;7377625;19;20017;-80
2022/08/01 03:01:56;;;;;;;11.55;5.22;;;;;;;17.36;100.00;101852.75;7376428;19;20367;-79
2022/08/01 03:04:33;;;;;;;11.05;4.45;;;;;;;17.34;100.00;101850.09;7379678;19;20108;-79
2022/08/01 03:07:05;;;;;;;9.48;3.60;;;;;;;17.35;100.00;101850.97;7380071;19;20036;-78
2022/08/01 03:09:41;;;;;;;8.85;4.10;;;;;;;17.33;100.00;101851.88;7380730;19;20037;-79
2022/08/01 03:12:16;;;;;;;8.38;4.10;;;;;;;17.33;100.00;101857.16;7374667;19;20495;-79
2022/08/01 03:14:51;;;;;;;9.50;4.43;;;;;;;17.34;100.00;101847.44;7376895;19;20573;-80
2022/08/01 03:17:27;;;;;;;7.72;3.97;;;;;;;17.35;100.00;101859.81;7374130;19;20329;-79
2022/08/01 03:20:00;;;;;;;7.85;3.42;;;;;;;17.35;100.00;101856.28;7376903;19;20035;-79
2022/08/01 03:22:32;;;;;;;8.63;3.88;;;;;;;17.32;100.00;101855.41;7376218;19;20483;-78
2022/08/01 03:25:06;;;;;;;6.88;3.10;;;;;;;17.32;100.00;101858.06;7375340;19;20013;-78
2022/08/01 03:27:35;;;;;;;;;;;;;;;17.31;100.00;101856.28;7374093;19;20058;-78
2022/08/01 03:30:07;;;;;;;6.50;2.90;;;;;;;17.29;100.00;101855.41;7377043;19;19986;-79
2022/08/01 03:32:46;;;;;;;6.05;2.85;;;;;;;17.35;100.00;101853.63;7378285;19;20015;-79
2022/08/01 03:35:29;;;;;;;5.57;2.97;;;;;;;17.30;100.00;101865.13;7380301;19;20026;-78
2022/08/01 03:38:05;;;;;;;5.72;2.80;;;;;;;17.29;100.00;101858.03;7378612;19;20015;-78
2022/08/01 03:40:51;;;;;;;8.55;2.90;;;;;;;17.32;100.00;101859.81;7375019;19;20021;-79
2022/08/01 03:43:29;;;;;;;5.00;2.50;;;;;;;17.29;100.00;101865.13;7378182;19;20014;-78
2022/08/01 03:46:07;;;;;;;4.85;2.08;;;;;;;17.27;100.00;101867.75;7377834;19;20018;-79
2022/08/01 03:48:45;;;;;;;3.22;1.98;;;;;;;17.28;100.00;101861.59;7373177;19;20006;-80
2022/08/01 03:51:16;;;;;;;5.22;2.40;;;;;;;17.30;100.00;101859.81;7373368;19;20015;-78
2022/08/01 03:53:54;;;;;;;4.35;2.08;;;;;;;17.30;100.00;101857.16;7370324;19;20112;-78
2022/08/01 03:56:26;;;;;;;4.50;2.35;;;;;;;17.30;100.00;101857.16;7378798;19;20031;-79
2022/08/01 03:58:59;;;;;;;4.65;2.85;;;;;;;17.35;100.00;101856.28;7370535;19;20018;-78
2022/08/01 04:01:30;;;;;;;5.10;2.30;;;;;;;17.34;100.00;101850.09;7373768;19;20006;-78
2022/08/01 04:04:05;;;;;;;5.50;2.60;;;;;;;17.31;100.00;101858.94;7378781;19;20121;-79
2022/08/01 04:06:35;;;;;;;5.35;2.22;;;;;;;17.29;100.00;101857.16;7375838;19;20070;-78
2022/08/01 04:09:06;;;;;;;5.20;2.70;;;;;;;17.29;100.00;101852.75;7373009;19;20502;-79
2022/08/01 04:11:42;;;;;;;6.75;3.17;;;;;;;17.25;100.00;101856.28;7372108;19;20223;-77
2022/08/01 04:14:12;;;;;;;6.18;2.63;;;;;;;17.27;100.00;101858.94;7371513;19;20381;-77
2022/08/01 04:16:43;;;;;;;5.75;2.47;;;;;;;17.22;100.00;101858.91;7373915;19;20665;-78
2022/08/01 04:19:17;;;;;;;6.20;2.60;;;;;;;17.23;100.00;101865.09;7370854;19;20082;-77
2022/08/01 04:21:47;;;;;;;5.97;3.20;;;;;;;17.20;100.00;101860.69;7371427;19;20353;-77
2022/08/01 04:24:23;;;;;;;6.80;2.97;;;;;;;17.19;100.00;101868.63;7373177;19;20014;-77
2022/08/01 04:26:55;;;;;;;5.88;2.60;;;;;;;17.19;100.00;101863.31;7373505;19;20014;-78
2022/08/01 04:29:30;;;;;;;5.35;2.70;;;;;;;17.21;100.00;101869.53;7376187;19;20014;-78
2022/08/01 04:32:03;;;;;;;6.70;3.35;;;;;;;17.22;100.00;101869.53;7377750;19;20026;-78
2022/08/01 04:34:37;;;;;;;6.03;3.00;;;;;;;17.22;100.00;101869.53;7378609;19;20039;-78
2022/08/01 04:37:12;;;;;;;8.52;3.22;;;;;;;17.24;100.00;101873.06;7374953;19;20030;-77
2022/08/01 04:39:44;;;;;;;6.00;3.08;;;;;;;17.28;100.00;101873.94;7375221;19;20074;-77
2022/08/01 04:42:20;;;;;;;8.18;3.30;;;;;;;17.31;100.00;101876.59;7378628;19;20018;-78
2022/08/01 04:44:56;;;;;;;7.43;2.83;;;;;;;17.34;100.00;101879.28;7379032;19;20010;-77
2022/08/01 04:47:29;;;;;;;6.78;2.90;;;;;;;17.38;100.00;101874.84;7375479;19;20010;-78
2022/08/01 04:50:03;;;;;;;7.68;3.05;;;;;;;17.40;100.00;101876.63;7377803;19;20019;-77
2022/08/01 04:52:36;;;;;;;6.63;2.72;;;;;;;17.41;100.00;101870.44;7367979;19;20007;-78
2022/08/01 04:55:08;;;;;;;6.75;2.90;;;;;;;17.47;100.00;101875.75;7373275;19;20540;-78
2022/08/01 04:57:40;;;;;;;8.83;3.33;;;;;;;17.50;100.00;101874.88;7373572;19;20030;-78
2022/08/01 05:00:11;;;;;;;6.82;3.40;;;;;;;17.54;100.00;101874.88;7372526;19;20048;-77
2022/08/01 05:02:42;;;;;;;8.52;3.08;;;;;;;17.60;100.00;101888.16;7372493;19;20029;-77
2022/08/01 05:05:15;;;;;;;7.85;3.05;;;;;;;17.65;100.00;101890.81;7372485;19;20010;-78
2022/08/01 05:07:45;;;;;;;7.80;2.95;;;;;;;17.69;100.00;101881.97;7373515;19;20580;-77
2022/08/01 05:10:17;;;;;;;7.25;3.08;;;;;;;17.67;100.00;101883.78;7372994;19;20653;-77
2022/08/01 05:12:46;;;;;;;7.68;3.45;;;;;;;17.73;100.00;101878.44;7370528;19;20014;-77
2022/08/01 05:15:16;;;;;;;7.28;3.15;;;;;;;17.75;100.00;101876.66;7372534;19;20676;-78
2022/08/01 05:17:47;;;;;;;7.28;2.83;;;;;;;17.82;100.00;101874.91;7369958;19;20665;-78
2022/08/01 05:20:23;;;;;;;8.00;2.80;;;;;;;17.82;100.00;101877.56;7374052;19;20014;-77
2022/08/01 05:22:54;;;;;;;7.15;2.88;;;;;;;17.89;100.00;101874.91;7371447;19;20048;-76
2022/08/01 05:25:26;;;;;;;8.50;3.28;;;;;;;17.89;100.00;101882.84;7374146;19;20033;-77
2022/08/01 05:28:17;;;;;;;6.43;3.20;;;;;;;17.87;100.00;101878.44;7386300;19;20097;-79
2022/08/01 05:30:48;;;;;;;5.30;3.13;;;;;;;17.89;100.00;101874.91;7383244;19;20013;-81
2022/08/01 05:33:20;;;;;;;6.80;3.30;;;;;;;17.90;100.00;101876.66;7384971;19;20015;-79
2022/08/01 05:35:53;;;;;;;6.05;2.92;;;;;;;17.89;100.00;101881.97;7381624;19;20015;-79
2022/08/01 05:38:23;;;;;;;9.20;3.50;;;;;;;17.89;100.00;101876.66;7389450;19;20540;-79
2022/08/01 05:40:54;;;;;;;6.30;2.90;;;;;;;17.93;100.00;101883.75;7389759;19;20050;-80
2022/08/01 05:43:25;;;;;;;7.53;3.13;;;;;;;17.89;100.00;101885.50;7386741;19;20006;-81
2022/08/01 05:45:58;;;;;;;5.33;3.33;;;;;;;17.91;100.00;101889.06;7384585;19;20010;-79
2022/08/01 05:48:30;;;;;;;6.90;3.35;;;;;;;17.90;100.00;101891.69;7381717;19;20011;-80
2022/08/01 05:51:03;;;;;;;5.57;3.03;;;;;;;17.93;100.00;101894.34;7383748;19;20011;-81
2022/08/01 05:53:34;;;;;;;6.70;3.10;;;;;;;17.86;100.00;101895.25;7377109;19;20429;-81
2022/08/01 05:56:04;;;;;;;7.90;3.30;;;;;;;17.85;100.00;101894.34;7383893;19;20017;-80
2022/08/01 05:58:34;;;;;;;6.82;3.60;;;;;;;17.76;100.00;101897.00;7383279;19;20003;-77
2022/08/01 06:01:05;;;;;;;6.65;2.88;;;;;;;17.67;100.00;101893.50;7379013;19;20035;-76
2022/08/01 06:03:36;;;;;;;7.55;3.35;;;;;;;17.72;100.00;101899.66;7378967;19;20479;-76
2022/08/01 06:06:16;;;;;;;10.50;3.28;;;;;;;17.70;100.00;101907.63;7379881;19;20006;-77
2022/08/01 06:08:53;;;;;;;6.95;3.60;;;;;;;17.57;100.00;101905.81;7381275;19;20018;-76
2022/08/01 06:11:28;;;;;;;6.32;3.10;;;;;;;17.62;100.00;101912.03;7387609;19;20014;-76
2022/08/01 06:14:02;;;;;;;6.40;3.40;;;;;;;17.61;100.00;101916.44;7382941;19;20034;-76
2022/08/01 06:16:35;;;;;;;6.90;3.60;;;;;;;17.69;100.00;101915.56;7382966;19;20010;-76
2022/08/01 06:19:05;;;;;;;9.98;4.65;;;;;;;17.79;100.00;101917.34;7384525;19;20538;-77
2022/08/01 06:21:39;;;;;;;7.90;3.90;;;;;;;17.90;100.00;101913.81;7384633;19;20011;-78
2022/08/01 06:24:10;;;;;;;10.30;4.55;;;;;;;17.99;100.00;101912.94;7385864;19;20010;-77
2022/08/01 06:26:42;;;;;;;10.35;4.25;;;;;;;17.93;100.00;101919.13;7385642;19;20065;-78
2022/08/01 06:29:12;;;;;;;8.95;5.05;;;;;;;17.95;100.00;101927.97;7384836;19;20423;-75
2022/08/01 06:31:43;;;;;;;7.63;4.32;;;;;;;17.96;100.00;101920.91;7378403;19;20017;-78
2022/08/01 06:34:15;;;;;;;8.13;4.57;;;;;;;17.98;100.00;101927.97;7377439;19;20090;-78
2022/08/01 06:36:47;;;;;;;9.10;4.20;;;;;;;17.91;100.00;101931.50;7376113;19;20234;-78
2022/08/01 06:39:18;;;;;;;7.80;4.55;;;;;;;18.04;100.00;101936.81;7376162;19;20010;-75
2022/08/01 06:41:50;;;;;;;9.35;4.65;;;;;;;17.94;100.00;101946.56;7375341;19;20019;-78
2022/08/01 06:44:22;;;;;;;10.35;4.82;;;;;;;17.93;100.00;101945.66;7379649;19;20002;-80
2022/08/01 06:47:00;;;;;;;8.55;4.60;;;;;;;17.95;100.00;101946.56;7376280;19;20019;-82
2022/08/01 06:49:30;;;;;;;9.75;4.75;;;;;;;17.94;100.00;101935.94;7384637;19;20006;-79
2022/08/01 06:52:06;;;;;;;12.48;5.72;;;;;;;17.76;100.00;101944.78;7385149;19;20035;-78
2022/08/01 06:54:37;;;;;;;12.75;5.28;;;;;;;17.81;100.00;101947.44;7381655;19;20050;-78
2022/08/01 06:57:08;;;;;;;9.70;5.03;;;;;;;17.84;100.00;101950.97;7386779;19;20018;-79
2022/08/01 06:59:39;;;;;;;13.05;5.75;;;;;;;17.74;100.00;101949.19;7389747;19;20012;-82
2022/08/01 07:02:29;;;;;;;10.32;5.05;;;;;;;17.78;100.00;101953.63;7380147;19;20050;-78
2022/08/01 07:05:01;;;;;;;13.68;5.93;;;;;;;17.69;100.00;101955.38;7389115;19;20121;-81
2022/08/01 07:07:35;;;;;;;13.13;6.13;;;;;;;17.67;100.00;101963.34;7379834;19;20402;-78
2022/08/01 07:10:06;;;;;;;13.10;5.75;;;;;;;17.67;100.00;101966.00;7388160;19;20038;-81
2022/08/01 07:12:37;;;;;;;16.05;6.32;;;;;;;17.63;100.00;101961.53;7386349;19;20665;-81
2022/08/01 07:15:25;;;;;;;;;;;;;;;;;;;;;
2022/08/01 07:18:04;;;;;;;21.48;5.80;;;;;;;17.54;100.00;101965.06;7382961;19;20257;-79
2022/08/01 07:20:45;;;;;;;13.50;6.15;;;;;;;17.58;100.00;101965.97;7386381;19;20035;-80
2022/08/01 07:23:24;;;;;;;18.05;7.15;;;;;;;17.64;100.00;101958.00;7382519;19;20033;-78
2022/08/01 07:26:03;;;;;;;19.98;6.90;;;;;;;17.74;100.00;101972.19;7375587;19;20632;-79
2022/08/01 07:28:34;;;;;;;14.68;6.38;;;;;;;17.76;100.00;101973.06;7389435;19;20022;-79
2022/08/01 07:31:12;;;;;;;19.05;6.32;;;;;;;17.79;100.00;101978.38;7372325;19;20091;-78
2022/08/01 07:33:42;;;;;;;15.20;6.40;;;;;;;17.72;100.00;101977.47;7377352;19;20094;-77
2022/08/01 07:36:34;;;;;;;16.08;6.05;;;;;;;17.73;100.00;101981.91;7388749;19;20106;-82
2022/08/01 07:39:07;;;;;;;19.38;6.32;;;;;;;17.69;100.00;101982.78;7382684;19;20021;-77
2022/08/01 07:41:42;;;;;;;12.57;5.57;;;;;;;17.75;100.00;101995.19;7372982;19;20047;-79
2022/08/01 07:44:32;;;;;;;18.75;6.97;;;;;;;17.83;100.00;101991.66;7375327;19;20985;-79
2022/08/01 07:47:04;;;;;;;21.30;6.50;;;;;;;17.93;100.00;102004.06;7375647;19;20007;-78
2022/08/01 07:49:35;;;;;;;12.25;5.70;;;;;;;17.97;100.00;102002.28;7376078;19;20021;-80
2022/08/01 07:52:09;;;;;;;20.55;7.03;;;;;;;18.01;100.00;102001.41;7369178;19;20044;-79
2022/08/01 07:54:51;;;;;;;15.88;6.35;;;;;;;18.11;100.00;101997.00;7371216;19;20002;-79
2022/08/01 07:57:34;;;;;;;15.57;6.30;;;;;;;18.24;100.00;101998.78;7371052;19;20002;-76
2022/08/01 08:00:05;;;;;;;;;;;;;;;18.39;100.00;101990.81;7371983;19;20007;-78
2022/08/01 08:02:35;;;;;;;15.68;5.35;;;;;;;18.48;100.00;102001.44;7366801;19;19907;-79
2022/08/01 08:05:07;;;;;;;19.15;6.95;;;;;;;18.91;100.00;101994.25;7371905;19;20579;-80
2022/08/01 08:07:37;;;;;;;17.63;6.18;;;;;;;19.16;100.00;101995.06;7372101;19;20015;-77
2022/08/01 08:10:11;;;;;;;17.30;5.85;;;;;;;19.21;100.00;101993.28;7369777;19;20025;-79
2022/08/01 08:12:42;;;;;;;15.95;5.80;;;;;;;19.20;100.00;101990.63;7371806;19;20014;-79
2022/08/01 08:15:14;;;;;;;17.50;5.97;;;;;;;19.24;100.00;101998.59;7372426;19;20011;-78
2022/08/01 08:17:47;;;;;;;18.77;6.00;;;;;;;19.26;100.00;101999.47;7365947;19;20011;-77
2022/08/01 08:20:28;;;;;;;16.05;6.25;;;;;;;19.40;100.00;102010.03;7363890;19;20010;-81
2022/08/01 08:24:19;;;;;;;16.60;5.85;;;;;;;19.51;100.00;102007.34;7365232;19;20010;-77
2022/08/01 08:26:14;;;;;;;15.27;6.20;;;;;;;19.58;100.00;102017.97;7370297;19;20010;-77
2022/08/01 08:28:44;;;;;;;14.30;5.45;;;;;;;19.65;100.00;102010.84;7382916;19;20043;-80
2022/08/01 08:31:19;;;;;;;11.45;4.82;;;;;;;19.68;100.00;102016.16;7385372;19;20219;-76
2022/08/01 08:34:09;;;;;;;15.88;5.03;;;;;;;19.75;100.00;102017.00;7371258;19;20479;-76
2022/08/01 08:36:40;;;;;;;19.77;6.18;;;;;;;19.89;100.00;102013.31;7390441;19;23152;-78
2022/08/01 08:39:18;;;;;;;14.02;5.43;;;;;;;19.98;100.00;102014.16;7381940;19;20584;-79
2022/08/01 08:41:54;;;;;;;13.77;5.88;;;;;;;20.23;100.00;102011.31;7385672;19;20048;-81
2022/08/01 08:44:24;;;;;;;12.43;4.97;;;;;;;20.40;100.00;102003.19;7387369;19;20042;-81
2022/08/01 08:46:55;;;;;;;9.40;4.28;;;;;;;20.64;100.00;102014.53;7392698;19;20010;-78
2022/08/01 08:49:30;;;;;;;12.47;5.10;;;;;;;21.01;100.00;102015.88;7389011;19;20063;-78
2022/08/01 08:52:06;;;;;;;13.18;4.57;;;;;;;21.43;100.00;102019.84;7388391;19;20271;-79
2022/08/01 08:54:39;;;;;;;11.57;5.38;;;;;;;21.56;100.00;102023.25;7381047;19;20014;-78
2022/08/01 08:57:15;;;;;;;15.77;5.18;;;;;;;21.60;100.00;102027.66;7384778;19;20022;-80
2022/08/01 08:59:46;;;;;;;14.45;4.45;;;;;;;21.94;100.00;102025.34;7393338;19;20003;-78
2022/08/01 09:02:16;;;;;;;13.45;4.80;;;;;;;22.13;100.00;102020.63;7380786;19;20014;-80
2022/08/01 09:04:47;;;;;;;13.10;4.93;;;;;;;21.73;100.00;102037.25;7382491;19;20010;-79
2022/08/01 09:07:19;;;;;;;13.75;4.35;;;;;;;21.81;100.00;102034.47;7389261;19;20406;-79
2022/08/01 09:09:53;;;;;;;12.57;4.75;;;;;;;21.71;100.00;102036.38;7380877;19;20037;-78
2022/08/01 09:12:26;;;;;;;;;;;;;;;21.66;100.00;102038.25;7397999;19;20022;-78
2022/08/01 09:14:57;;;;;;;14.60;4.72;;;;;;;21.47;100.00;102042.94;7386351;19;19914;-80
2022/08/01 09:17:27;;;;;;;15.77;5.13;;;;;;;21.95;100.00;102047.59;7383915;19;20053;-78
2022/08/01 09:19:59;;;;;;;12.23;4.05;;;;;;;21.90;100.00;102046.78;7394806;19;20069;-82
2022/08/01 09:22:37;;;;;;;8.38;3.75;;;;;;;22.13;100.00;102048.25;7386344;19;20018;-77
2022/08/01 09:25:09;;;;;;;9.82;4.38;;;;;;;21.88;100.00;102047.69;7385262;19;20034;-78
2022/08/01 09:27:42;;;;;;;12.30;3.33;;;;;;;21.86;100.00;102044.16;7382455;19;20010;-79
2022/08/01 09:30:17;;;;;;;8.57;3.95;;;;;;;21.73;100.00;102047.94;7383419;19;20024;-78
2022/08/01 09:33:02;;;;;;;9.60;3.90;;;;;;;21.87;100.00;102045.91;7387566;19;20006;-78
2022/08/01 09:35:44;;;;;;;10.85;3.88;;;;;;;21.45;100.00;102052.75;7384280;19;20470;-80
2022/08/01 09:38:17;;;;;;;11.10;3.40;;;;;;;21.69;100.00;102051.53;7385659;19;20015;-78
2022/08/01 09:40:56;;;;;;;11.55;4.07;;;;;;;21.90;100.00;102050.34;7377167;19;20177;-78
2022/08/01 09:43:31;;;;;;;8.68;3.70;;;;;;;22.31;100.00;102057.75;7374795;19;20003;-79
2022/08/01 09:46:12;;;;;;;10.43;3.92;;;;;;;22.54;99.07;102059.16;7375914;19;20684;-80
2022/08/01 09:48:57;;;;;;;9.93;4.50;;;;;;;22.15;100.00;102064.25;7371916;19;20007;-80
2022/08/01 09:51:33;;;;;;;11.82;3.65;;;;;;;22.14;100.00;102066.03;7370135;19;20015;-76
2022/08/01 09:54:35;;;;;;;11.98;3.60;;;;;;;22.34;100.00;102065.72;7361720;19;20018;-76
2022/08/01 09:57:16;;;;;;;15.82;4.35;;;;;;;22.76;92.46;102050.75;7369343;19;20018;-74
2022/08/01 09:59:51;;;;;;;11.75;4.50;;;;;;;23.19;92.97;102057.09;7365764;19;20015;-74
2022/08/01 10:02:33;;;;;;;12.52;5.07;;;;;;;23.19;94.43;102063.31;7363263;19;20007;-73
2022/08/01 10:05:06;;;;;;;11.02;4.13;;;;;;;23.11;91.48;102063.47;7366262;19;20014;-73
2022/08/01 10:07:39;;;;;;;14.43;4.13;;;;;;;23.09;90.80;102067.97;7365601;19;20014;-73
2022/08/01 10:10:15;;;;;;;11.73;3.47;;;;;;;23.27;88.63;102052.47;7366034;19;20010;-79
2022/08/01 10:12:46;;;;;;;12.82;3.78;;;;;;;23.60;85.97;102065.19;7366339;19;20015;-77
2022/08/01 10:15:20;;;;;;;9.75;3.90;;;;;;;23.60;86.40;102054.47;7366667;19;20533;-77
2022/08/01 10:18:08;;;;;;;7.05;3.25;;;;;;;23.90;87.18;102047.56;7362172;19;20019;-77
2022/08/01 10:20:50;;;;;;;11.70;3.97;;;;;;;23.99;85.01;102054.47;7364100;19;20181;-76
2022/08/01 10:23:29;;;;;;;11.75;4.03;;;;;;;23.66;85.28;102050.78;7368263;19;20625;-76
2022/08/01 10:26:13;;;;;;;11.00;4.03;;;;;;;23.51;86.91;102060.00;7374624;19;20043;-78
2022/08/01 10:28:50;;;;;;;10.60;4.13;;;;;;;23.36;87.17;102057.63;7372231;19;20007;-77
2022/08/01 10:31:23;;;;;;;8.45;4.25;;;;;;;23.05;84.69;102058.22;7370396;19;20007;-77
2022/08/01 10:34:03;;;;;;;11.85;3.40;;;;;;;23.54;87.34;102057.28;7378442;19;20561;-77
2022/08/01 10:36:38;;;;;;;12.02;3.75;;;;;;;23.89;86.93;102055.63;7373816;19;20011;-77
2022/08/01 10:39:12;;;;;;;8.90;3.08;;;;;;;24.44;81.57;102056.06;7371550;19;20010;-75
2022/08/01 10:41:48;;;;;;;9.02;3.47;;;;;;;23.49;78.42;102064.50;7370691;19;20249;-77
2022/08/01 10:44:20;;;;;;;8.50;2.97;;;;;;;23.70;81.45;102063.19;7369527;19;20454;-76
2022/08/01 10:47:00;;;;;;;5.63;2.88;;;;;;;23.99;79.10;102059.81;7371154;19;20089;-77
2022/08/01 10:49:35;;;;;;;10.48;3.40;;;;;;;23.58;79.72;102058.97;7371188;19;20166;-76
2022/08/01 10:52:05;;;;;;;7.53;2.83;;;;;;;24.05;79.14;102065.03;7368141;19;20774;-79
2022/08/01 10:54:42;;;;;;;10.38;2.85;;;;;;;23.06;78.02;102062.69;7369018;19;20066;-74
2022/08/01 10:57:21;;;;;;;11.25;2.90;;;;;;;23.01;80.40;102067.22;7373420;19;20003;-74
2022/08/01 10:59:56;;;;;;;7.22;2.75;;;;;;;23.53;78.31;102066.19;7370170;19;20011;-73
2022/08/01 11:02:34;;;;;;;7.63;3.25;;;;;;;24.00;76.37;102065.16;7372731;19;20082;-73
2022/08/01 11:05:09;;;;;;;9.10;3.78;;;;;;;24.20;76.52;102067.38;7369190;19;20011;-73
2022/08/01 11:07:50;;;;;;;9.70;3.50;;;;;;;24.83;74.00;102071.19;7372158;19;20458;-74
2022/08/01 11:10:35;;;;;;;10.60;3.50;;;;;;;25.34;70.28;102072.44;7369474;19;20042;-75
2022/08/01 11:13:11;;;;;;;9.38;3.30;;;;;;;25.18;71.33;102073.78;7371043;19;20017;-74
2022/08/01 11:15:43;;;;;;;5.97;3.22;;;;;;;24.55;71.82;102071.91;7371593;19;20022;-74
2022/08/01 11:18:37;;;;;;;9.63;3.38;;;;;;;25.02;69.60;102073.34;7370703;19;20309;-75
2022/08/01 11:21:10;;;;;;;10.02;3.67;;;;;;;24.46;68.44;102074.81;7368373;19;20011;-74
2022/08/01 11:24:03;;;;;;;11.10;3.90;;;;;;;25.08;69.25;102069.59;7371451;19;20011;-76
2022/08/01 11:26:37;;;;;;;;;;;;;;;25.30;67.81;102069.88;7372582;19;20018;-73
2022/08/01 11:29:19;;;;;;;13.68;4.25;;;;;;;25.70;66.74;102075.00;7370310;19;19921;-74
2022/08/01 11:31:52;;;;;;;7.57;3.42;;;;;;;25.64;64.42;102073.38;7371756;19;20058;-72
2022/08/01 11:34:57;;;;;;;10.05;3.17;;;;;;;24.86;62.24;102072.00;7368586;19;20018;-73
2022/08/01 11:37:47;;;;;;;;;;;;;;;;;;;;;
2022/08/01 11:40:28;;;;;;;10.50;4.30;;;;;;;24.82;64.20;102064.06;7368297;19;20014;-74
2022/08/01 11:46:17;;;;;;;8.63;3.47;;;;;;;25.38;61.34;102067.88;7367265;19;20026;-73
2022/08/01 11:49:32;;;;;;;6.95;2.88;;;;;;;25.18;56.84;102067.53;7370383;19;20021;-75
2022/08/01 11:52:17;;;;;;;6.38;2.90;;;;;;;25.90;55.45;102061.84;7368163;19;20066;-74
2022/08/01 11:55:07;;;;;;;7.43;2.72;;;;;;;26.18;56.93;102069.88;7367987;19;20395;-75
2022/08/01 11:57:48;;;;;;;9.18;2.65;;;;;;;26.47;54.53;102068.97;7370493;19;20308;-75
2022/08/01 12:00:41;;;;;;;8.35;2.92;;;;;;;26.27;52.74;102069.59;7369613;19;20014;-75